Погода Итапирана 2 недели

Сан-Паулу, Бразилия

21 апреля-04 мая
  • 21апреля
    Сегодня
    +15°
    +29°
    Ясно и безоблачно
    ВремяПогодаТемператураВлажностьДавлениеВетер, м/сВероятность осадков
    00:00Ясно и безоблачно+18°C87 %701 мм2.1 м/с5 %
    03:00Ясно и безоблачно+17°C85 %701 мм2.4 м/с5 %
    06:00Ясно и безоблачно+16°C84 %701 мм2.6 м/с5 %
    09:00Ясно и безоблачно+22°C65 %703 мм2.0 м/с5 %
    12:00Ясно и безоблачно+26°C44 %703 мм1.1 м/с5 %
    15:00Ясно и безоблачно+28°C38 %701 мм1.2 м/с5 %
    18:00Ясно и безоблачно+25°C56 %700 мм1.0 м/с5 %
    21:00Ясно и безоблачно+20°C65 %700 мм2.1 м/с5 %
  • 22апреля
    Понедельник
    +15°
    +29°
    Ясно и безоблачно
    ВремяПогодаТемператураВлажностьДавлениеВетер, м/сВероятность осадков
    00:00Ясно и безоблачно+18°C80 %700 мм2.1 м/с5 %
    03:00Ясно и безоблачно+17°C86 %699 мм2.1 м/с5 %
    06:00Ясно и безоблачно+15°C86 %700 мм2.4 м/с5 %
    09:00Ясно и безоблачно+22°C63 %702 мм1.4 м/с5 %
    12:00Ясно и безоблачно+27°C38 %701 мм1.8 м/с5 %
    15:00Ясно и безоблачно+29°C33 %699 мм1.9 м/с5 %
    18:00Ясно и безоблачно+25°C56 %699 мм1.9 м/с5 %
    21:00Ясно и безоблачно+19°C63 %699 мм1.8 м/с5 %
  • 23апреля
    Вторник
    +15°
    +30°
    Небольшая облачность
    ВремяПогодаТемператураВлажностьДавлениеВетер, м/сВероятность осадков
    00:00Ясно и безоблачно+18°C71 %699 мм2.4 м/с5 %
    03:00Ясно и безоблачно+17°C80 %699 мм2.5 м/с5 %
    06:00Ясно и безоблачно+16°C87 %699 мм2.1 м/с5 %
    09:00Облачно с прояснениями+22°C63 %701 мм1.4 м/с5 %
    12:00Практически безоблачно+28°C33 %701 мм2.6 м/с5 %
    15:00Небольшая облачность+29°C32 %700 мм2.4 м/с5 %
    18:00Практически безоблачно+27°C49 %700 мм0.9 м/с5 %
    21:00Практически безоблачно+21°C60 %700 мм0.8 м/с5 %
  • 24апреля
    Среда
    +17°
    +31°
    Практически безоблачно
    ВремяПогодаТемператураВлажностьДавлениеВетер, м/сВероятность осадков
    00:00Ясно и безоблачно+20°C74 %699 мм1.8 м/с5 %
    03:00Практически безоблачно+18°C78 %699 мм1.5 м/с5 %
    06:00Небольшая облачность+16°C80 %699 мм2.0 м/с5 %
    09:00Небольшая облачность+23°C56 %702 мм0.8 м/с5 %
    12:00Небольшая облачность+28°C36 %701 мм2.0 м/с5 %
    15:00Практически безоблачно+30°C34 %700 мм2.5 м/с5 %
    18:00Облачно с прояснениями+27°C52 %700 мм1.0 м/с5 %
    21:00Облачно с прояснениями+22°C60 %700 мм1.6 м/с5 %
  • 25апреля
    Четверг
    +19°
    +33°
    Практически безоблачно
    ВремяПогодаТемператураВлажностьДавлениеВетер, м/сВероятность осадков
    00:00Облачно с прояснениями+21°C74 %700 мм2.5 м/с5 %
    03:00Небольшая облачность+20°C86 %699 мм3.0 м/с5 %
    06:00Облачно с прояснениями+18°C87 %700 мм2.2 м/с5 %
    09:00Ясно и безоблачно+24°C63 %702 мм1.6 м/с5 %
    12:00Ясно и безоблачно+30°C42 %702 мм0.5 м/с5 %
    15:00Практически безоблачно+32°C37 %700 мм1.7 м/с22 %
    18:00Ясно и безоблачно+27°C66 %701 мм4.5 м/с20 %
    21:00Ясно и безоблачно+22°C82 %701 мм3.1 м/с10 %
Мы используем cookies
Соглашаюсь